createdAt,value
2018-05-31T00:01:28.598Z,20.10
2018-05-31T00:03:54.884Z,20.00
2018-05-31T00:06:21.240Z,19.80
2018-05-31T00:08:47.954Z,19.80
2018-05-31T00:11:15.154Z,19.70
2018-05-31T00:13:41.435Z,19.70
2018-05-31T00:16:07.776Z,19.70
2018-05-31T00:18:34.143Z,19.60
2018-05-31T00:21:00.494Z,19.50
2018-05-31T00:23:26.782Z,19.60
2018-05-31T00:25:53.839Z,19.50
2018-05-31T00:28:20.912Z,19.50
2018-05-31T00:30:48.009Z,19.40
2018-05-31T00:33:14.423Z,19.40
2018-05-31T00:35:40.741Z,19.40
2018-05-31T00:38:07.019Z,19.50
2018-05-31T00:40:33.358Z,19.50
2018-05-31T00:42:59.663Z,19.50
2018-05-31T00:45:26.004Z,19.40
2018-05-31T00:47:52.283Z,19.40
2018-05-31T00:50:19.577Z,19.40
2018-05-31T00:52:45.985Z,19.50
2018-05-31T00:55:12.557Z,19.40
2018-05-31T00:57:38.895Z,19.30
2018-05-31T01:00:05.331Z,19.20
2018-05-31T01:02:31.759Z,19.20
2018-05-31T01:04:59.039Z,19.30
2018-05-31T01:07:25.483Z,19.30
2018-05-31T01:09:51.794Z,19.30
2018-05-31T01:12:18.404Z,19.30
2018-05-31T01:14:44.725Z,19.30
2018-05-31T01:17:11.079Z,19.30
2018-05-31T01:19:37.379Z,19.20
2018-05-31T01:22:03.692Z,19.20
2018-05-31T01:24:30.035Z,19.10
2018-05-31T01:26:56.284Z,19.00
2018-05-31T01:29:22.573Z,18.90
2018-05-31T01:31:48.849Z,18.80
2018-05-31T01:34:15.109Z,18.70
2018-05-31T01:36:41.513Z,18.70
2018-05-31T01:39:07.887Z,18.80
2018-05-31T01:41:34.365Z,18.80
2018-05-31T01:44:01.593Z,18.90
2018-05-31T01:46:27.900Z,18.80
2018-05-31T01:48:54.937Z,18.90
2018-05-31T01:51:21.282Z,18.90
2018-05-31T01:53:47.595Z,18.90
2018-05-31T01:56:13.886Z,18.90
2018-05-31T01:58:40.885Z,19.10
2018-05-31T02:01:07.107Z,19.00
2018-05-31T02:03:33.395Z,19.20
2018-05-31T02:06:00.373Z,19.30
2018-05-31T02:08:26.875Z,19.40
2018-05-31T02:10:53.237Z,19.40
2018-05-31T02:13:19.829Z,19.40
2018-05-31T02:15:47.611Z,19.20
2018-05-31T02:18:19.403Z,19.20
2018-05-31T02:20:49.563Z,19.30
2018-05-31T02:23:19.848Z,19.20
2018-05-31T02:25:49.377Z,19.10
2018-05-31T02:28:16.276Z,19.10
2018-05-31T02:30:43.434Z,19.00
2018-05-31T02:33:09.900Z,19.00
2018-05-31T02:35:36.272Z,19.00
2018-05-31T02:38:02.931Z,19.00
2018-05-31T02:40:29.733Z,19.00
2018-05-31T02:42:56.728Z,19.10
2018-05-31T02:45:23.614Z,18.90
2018-05-31T02:47:50.517Z,18.70
2018-05-31T02:50:18.261Z,18.90
2018-05-31T02:52:45.431Z,18.90
2018-05-31T02:55:11.808Z,18.90
2018-05-31T02:57:38.131Z,18.90
2018-05-31T03:00:04.495Z,18.90
2018-05-31T03:02:33.763Z,18.80
2018-05-31T03:05:03.837Z,18.70
2018-05-31T03:07:33.649Z,18.60
2018-05-31T03:10:02.856Z,18.60
2018-05-31T03:12:32.743Z,18.50
2018-05-31T03:14:59.783Z,18.60
2018-05-31T03:17:26.019Z,18.60
2018-05-31T03:19:53.060Z,18.80
2018-05-31T03:22:19.323Z,18.70
2018-05-31T03:24:45.663Z,18.80
2018-05-31T03:27:11.957Z,18.70
2018-05-31T03:29:38.299Z,18.80
2018-05-31T03:32:04.620Z,18.70
2018-05-31T03:34:31.818Z,18.70
2018-05-31T03:36:58.712Z,18.70
2018-05-31T03:39:26.274Z,18.80
2018-05-31T03:41:53.018Z,18.80
2018-05-31T03:44:19.685Z,18.80
2018-05-31T03:46:45.996Z,18.90
2018-05-31T03:49:12.536Z,18.90
2018-05-31T03:51:38.797Z,18.90
2018-05-31T03:54:07.154Z,18.90
2018-05-31T03:56:33.568Z,18.90
2018-05-31T03:59:00.644Z,18.90
2018-05-31T04:01:26.994Z,18.90
2018-05-31T04:03:54.006Z,18.90
2018-05-31T04:06:23.562Z,19.00
2018-05-31T04:08:51.908Z,19.00
2018-05-31T04:11:19.372Z,19.00
2018-05-31T04:13:46.150Z,19.00
2018-05-31T04:16:12.621Z,19.00
2018-05-31T04:18:39.777Z,19.10
2018-05-31T04:21:06.116Z,19.00
2018-05-31T04:23:33.150Z,19.20
2018-05-31T04:25:59.484Z,19.20
2018-05-31T04:28:25.813Z,19.20
2018-05-31T04:30:52.197Z,19.20
2018-05-31T04:33:18.402Z,19.30
2018-05-31T04:35:44.696Z,19.40
2018-05-31T04:38:10.977Z,19.50
2018-05-31T04:40:37.238Z,19.50
2018-05-31T04:43:03.541Z,19.60
2018-05-31T04:45:30.555Z,19.70
2018-05-31T04:47:56.778Z,19.70
2018-05-31T04:50:24.094Z,19.80
2018-05-31T04:52:50.335Z,19.90
2018-05-31T04:55:16.559Z,20.00
2018-05-31T04:57:42.749Z,20.10
2018-05-31T05:00:09.004Z,20.10
2018-05-31T05:02:35.247Z,20.20
2018-05-31T05:05:01.493Z,20.20
2018-05-31T05:07:27.861Z,20.20
2018-05-31T05:09:54.627Z,20.20
2018-05-31T05:12:20.992Z,20.20
2018-05-31T05:14:47.267Z,20.20
2018-05-31T05:17:13.539Z,20.20
2018-05-31T05:19:39.748Z,20.20
2018-05-31T05:22:05.996Z,20.30
2018-05-31T05:24:32.277Z,20.30
2018-05-31T05:26:58.508Z,20.40
2018-05-31T05:29:25.218Z,20.50
2018-05-31T05:31:51.578Z,20.60
2018-05-31T05:34:17.989Z,20.70
2018-05-31T05:36:44.236Z,20.80
2018-05-31T05:39:10.507Z,20.80
2018-05-31T05:41:36.730Z,20.80
2018-05-31T05:44:02.957Z,20.80
2018-05-31T05:46:29.185Z,20.80
2018-05-31T05:48:56.182Z,20.90
2018-05-31T05:51:23.471Z,20.80
2018-05-31T05:53:49.756Z,20.90
2018-05-31T05:56:17.919Z,21.00
2018-05-31T05:58:44.202Z,21.00
2018-05-31T06:01:10.521Z,21.00
2018-05-31T06:03:37.804Z,21.10
2018-05-31T06:06:04.079Z,21.20
2018-05-31T06:08:31.388Z,21.20
2018-05-31T06:10:58.702Z,21.30
2018-05-31T06:13:24.972Z,21.40
2018-05-31T06:15:51.248Z,21.50
2018-05-31T06:18:22.267Z,21.60
2018-05-31T06:20:49.539Z,21.70
2018-05-31T06:23:15.763Z,21.90
2018-05-31T06:25:42.039Z,22.00
2018-05-31T06:28:08.431Z,22.10
2018-05-31T06:30:35.839Z,22.10
2018-05-31T06:33:02.071Z,22.10
2018-05-31T06:35:28.349Z,22.10
2018-05-31T06:37:54.614Z,22.10
2018-05-31T06:40:21.923Z,22.10
2018-05-31T06:42:48.163Z,22.10
2018-05-31T06:45:16.722Z,22.10
2018-05-31T06:47:43.014Z,22.20
2018-05-31T06:50:11.485Z,22.20
2018-05-31T06:52:37.871Z,22.20
2018-05-31T06:55:04.243Z,22.20
2018-05-31T06:57:30.623Z,22.30
2018-05-31T06:59:56.866Z,22.30
2018-05-31T07:02:24.206Z,22.40
2018-05-31T07:04:50.548Z,22.40
2018-05-31T07:07:16.886Z,22.50
2018-05-31T07:09:44.059Z,22.50
2018-05-31T07:12:10.251Z,22.60
2018-05-31T07:14:36.483Z,22.70
2018-05-31T07:17:02.719Z,22.80
2018-05-31T07:19:28.908Z,22.90
2018-05-31T07:21:55.903Z,22.90
2018-05-31T07:24:22.199Z,22.90
2018-05-31T07:26:49.287Z,23.10
2018-05-31T07:29:15.555Z,23.10
2018-05-31T07:31:41.807Z,23.10
2018-05-31T07:34:08.097Z,23.20
2018-05-31T07:36:34.414Z,23.30
2018-05-31T07:39:00.725Z,23.20
2018-05-31T07:41:27.030Z,23.00
2018-05-31T07:43:53.330Z,23.10
2018-05-31T07:46:19.751Z,23.40
2018-05-31T07:48:46.006Z,23.20
2018-05-31T07:51:12.357Z,23.40
2018-05-31T07:53:38.665Z,23.40
2018-05-31T07:56:04.911Z,23.50
2018-05-31T07:58:31.328Z,23.70
2018-05-31T08:00:57.611Z,23.80
2018-05-31T08:03:23.952Z,23.90
2018-05-31T08:05:50.230Z,24.10
2018-05-31T08:08:16.535Z,24.10
2018-05-31T08:10:43.023Z,24.10
2018-05-31T08:13:09.335Z,24.20
2018-05-31T08:15:35.581Z,24.30
2018-05-31T08:18:01.912Z,24.40
2018-05-31T08:20:28.221Z,24.20
2018-05-31T08:22:56.635Z,24.20
2018-05-31T08:25:23.313Z,24.20
2018-05-31T08:30:43.037Z,24.10
2018-05-31T08:33:09.690Z,23.80
2018-05-31T08:35:36.107Z,23.80
2018-05-31T08:38:02.405Z,24.00
2018-05-31T08:40:28.804Z,24.00
2018-05-31T08:42:57.242Z,24.30
2018-05-31T08:45:24.262Z,24.30
2018-05-31T08:47:50.518Z,24.50
2018-05-31T08:50:16.829Z,24.70
2018-05-31T08:52:43.235Z,24.80
2018-05-31T08:55:09.471Z,24.80
2018-05-31T08:57:36.133Z,24.70
2018-05-31T09:00:02.432Z,24.40
2018-05-31T09:02:28.788Z,24.60
2018-05-31T09:04:55.043Z,24.50
2018-05-31T09:07:21.316Z,24.70
2018-05-31T09:09:47.633Z,24.80
2018-05-31T09:12:13.923Z,24.60
2018-05-31T09:14:40.133Z,24.80
2018-05-31T09:17:06.427Z,24.90
2018-05-31T09:19:32.719Z,24.90
2018-05-31T09:21:59.169Z,25.00
2018-05-31T09:24:25.604Z,25.20
2018-05-31T09:26:51.923Z,25.40
2018-05-31T09:29:18.215Z,25.40
2018-05-31T09:31:44.538Z,25.40
2018-05-31T09:34:12.686Z,25.60
2018-05-31T09:36:39.191Z,25.40
2018-05-31T09:39:05.505Z,25.60
2018-05-31T09:41:31.760Z,25.70
2018-05-31T09:43:58.022Z,25.90
2018-05-31T09:46:24.300Z,25.80
2018-05-31T09:48:50.637Z,25.90
2018-05-31T09:51:18.106Z,26.00
2018-05-31T09:53:44.493Z,26.20
2018-05-31T09:56:20.995Z,26.40
2018-05-31T09:58:47.335Z,26.40
2018-05-31T10:01:15.697Z,26.50
2018-05-31T10:03:42.019Z,26.70
2018-05-31T10:06:08.267Z,26.80
2018-05-31T10:08:34.489Z,26.90
2018-05-31T10:11:00.714Z,27.00
2018-05-31T10:13:29.205Z,27.10
2018-05-31T10:16:02.912Z,27.30
2018-05-31T10:18:32.280Z,27.30
2018-05-31T10:21:01.693Z,27.30
2018-05-31T10:23:31.903Z,27.10
2018-05-31T10:25:59.479Z,27.10
2018-05-31T10:28:28.820Z,27.30
2018-05-31T10:30:58.720Z,27.50
2018-05-31T10:33:31.368Z,27.60
2018-05-31T10:35:58.680Z,27.70
2018-05-31T10:38:31.704Z,27.70
2018-05-31T10:41:00.944Z,27.80
2018-05-31T10:43:28.397Z,27.80
2018-05-31T10:46:03.909Z,28.40
2018-05-31T10:48:31.369Z,28.40
2018-05-31T10:51:00.354Z,28.40
2018-05-31T10:53:33.726Z,28.40
2018-05-31T10:56:01.525Z,28.70
2018-05-31T10:58:33.041Z,28.80
2018-05-31T11:19:01.942Z,29.70
2018-05-31T11:21:32.793Z,29.70
2018-05-31T11:24:02.329Z,30.00
2018-05-31T11:26:29.256Z,30.20
2018-05-31T11:28:55.610Z,30.00
2018-05-31T11:31:22.271Z,29.80
2018-05-31T11:33:48.611Z,29.60
2018-05-31T11:36:14.836Z,29.60
2018-05-31T11:38:41.264Z,29.80
2018-05-31T11:41:07.636Z,30.30
2018-05-31T11:43:34.048Z,30.70
2018-05-31T11:46:01.313Z,31.00
2018-05-31T11:48:28.524Z,30.80
2018-05-31T11:50:54.989Z,30.80
2018-05-31T11:53:22.959Z,30.90
2018-05-31T11:58:40.144Z,31.40
2018-05-31T12:01:06.838Z,31.20
2018-05-31T12:03:33.498Z,31.40
2018-05-31T12:06:06.135Z,31.60
2018-05-31T12:08:32.733Z,31.80
2018-05-31T12:11:01.330Z,31.70
2018-05-31T12:13:32.112Z,31.90
2018-05-31T12:15:58.620Z,31.90
2018-05-31T12:18:31.957Z,32.30
2018-05-31T12:20:58.287Z,32.60
2018-05-31T12:23:31.432Z,32.90
2018-05-31T12:26:04.778Z,32.70
2018-05-31T12:28:35.200Z,32.20
2018-05-31T12:31:01.656Z,32.80
2018-05-31T12:33:29.253Z,33.20
2018-05-31T12:35:55.594Z,33.10
2018-05-31T12:38:22.595Z,33.50
2018-05-31T12:40:48.869Z,33.50
2018-05-31T12:43:15.164Z,33.50
2018-05-31T12:45:41.609Z,32.80
2018-05-31T12:48:07.951Z,32.40
2018-05-31T12:50:34.288Z,33.00
2018-05-31T12:53:01.672Z,33.50
2018-05-31T12:55:32.585Z,33.60
2018-05-31T12:58:02.688Z,33.30
2018-05-31T13:00:29.864Z,32.70
2018-05-31T13:03:01.037Z,32.70
2018-05-31T13:05:34.400Z,32.40
2018-05-31T13:08:01.855Z,32.10
2018-05-31T13:10:28.296Z,31.80
2018-05-31T13:12:54.805Z,31.30
2018-05-31T13:15:21.185Z,31.20
2018-05-31T13:17:47.599Z,31.60
2018-05-31T13:20:13.989Z,32.30
2018-05-31T13:22:40.251Z,32.30
2018-05-31T13:25:07.581Z,31.90
2018-05-31T13:27:34.367Z,31.60
2018-05-31T13:30:00.836Z,31.10
2018-05-31T13:32:27.915Z,31.00
2018-05-31T13:34:54.466Z,31.00
2018-05-31T13:37:20.937Z,31.60
2018-05-31T13:39:47.342Z,31.90
2018-05-31T13:42:13.695Z,31.80
2018-05-31T13:44:41.172Z,31.30
2018-05-31T13:47:09.203Z,31.10
2018-05-31T13:49:35.491Z,31.00
2018-05-31T13:52:02.968Z,30.60
2018-05-31T13:54:29.267Z,30.00
2018-05-31T13:56:55.547Z,30.00
2018-05-31T13:59:21.925Z,29.80
2018-05-31T14:01:48.327Z,29.40
2018-05-31T14:04:14.959Z,29.10
2018-05-31T14:06:42.267Z,29.10
2018-05-31T14:09:08.676Z,29.20
2018-05-31T14:11:35.015Z,29.10
2018-05-31T14:14:01.515Z,28.90
2018-05-31T14:16:27.802Z,28.80
2018-05-31T14:18:54.074Z,28.30
2018-05-31T14:21:34.788Z,28.10
2018-05-31T14:24:08.217Z,28.10
2018-05-31T14:26:34.815Z,27.90
2018-05-31T14:29:07.819Z,27.60
2018-05-31T14:31:34.852Z,27.40
2018-05-31T14:34:05.077Z,27.30
2018-05-31T14:36:37.707Z,27.30
2018-05-31T14:39:09.199Z,27.40
2018-05-31T14:41:40.417Z,27.20
2018-05-31T14:44:06.734Z,27.40
2018-05-31T14:46:38.538Z,27.40
2018-05-31T14:49:20.704Z,27.40
2018-05-31T14:51:47.171Z,27.50
2018-05-31T14:54:13.485Z,27.30
2018-05-31T14:56:41.931Z,26.80
2018-05-31T14:59:08.336Z,26.80
2018-05-31T15:01:34.644Z,26.90
2018-05-31T15:04:01.532Z,27.20
2018-05-31T15:06:27.848Z,27.30
2018-05-31T15:08:54.273Z,27.30
2018-05-31T15:11:21.124Z,27.30
2018-05-31T15:13:48.471Z,27.40
2018-05-31T15:16:14.800Z,27.50
2018-05-31T15:18:41.040Z,27.40
2018-05-31T15:21:07.389Z,27.50
2018-05-31T15:23:33.704Z,27.60
2018-05-31T15:26:00.023Z,27.60
2018-05-31T15:28:26.439Z,27.70
2018-05-31T15:30:52.799Z,27.70
2018-05-31T15:33:19.024Z,27.70
2018-05-31T15:35:45.398Z,27.50
2018-05-31T15:38:12.180Z,27.20
2018-05-31T15:40:39.104Z,27.10
2018-05-31T15:43:05.452Z,27.00
2018-05-31T15:45:32.507Z,26.90
2018-05-31T15:47:59.570Z,26.80
2018-05-31T15:50:26.628Z,26.60
2018-05-31T15:52:54.070Z,26.70
2018-05-31T15:55:20.520Z,26.70
2018-05-31T15:57:47.154Z,26.80
2018-05-31T16:00:13.492Z,26.70
2018-05-31T16:02:39.932Z,26.20
2018-05-31T16:05:06.230Z,26.40
2018-05-31T16:07:33.310Z,26.60
2018-05-31T16:10:00.246Z,26.50
2018-05-31T16:12:27.624Z,26.50
2018-05-31T16:14:59.583Z,26.50
2018-05-31T16:17:25.969Z,26.50
2018-05-31T16:19:52.384Z,26.50
2018-05-31T16:22:18.903Z,26.50
2018-05-31T16:27:35.601Z,26.30
2018-05-31T16:30:13.133Z,26.40
2018-05-31T16:32:40.311Z,26.50
2018-05-31T16:35:06.706Z,26.50
2018-05-31T16:37:36.419Z,26.40
2018-05-31T16:40:04.235Z,26.40
2018-05-31T16:42:42.464Z,26.50
2018-05-31T16:45:11.200Z,26.50
2018-05-31T16:47:39.911Z,26.50
2018-05-31T16:50:11.805Z,26.60
2018-05-31T16:52:55.189Z,26.70
2018-05-31T16:55:21.677Z,26.80
2018-05-31T16:57:48.027Z,27.00
2018-05-31T17:00:16.767Z,27.00
2018-05-31T17:02:44.598Z,27.00
2018-05-31T17:05:11.955Z,26.70
2018-05-31T17:07:39.033Z,26.50
2018-05-31T17:10:05.679Z,26.50
2018-05-31T17:12:32.710Z,26.40
2018-05-31T17:14:59.360Z,26.40
2018-05-31T17:17:25.721Z,26.40
2018-05-31T17:19:55.407Z,26.20
2018-05-31T17:22:28.832Z,26.20
2018-05-31T17:24:56.876Z,26.50
2018-05-31T17:27:23.457Z,26.40
2018-05-31T17:29:50.418Z,26.30
2018-05-31T17:32:18.722Z,26.30
2018-05-31T17:34:47.483Z,26.30
2018-05-31T17:37:14.866Z,26.20
2018-05-31T17:39:47.484Z,26.20
2018-05-31T17:42:14.990Z,26.00
2018-05-31T17:44:42.249Z,26.00
2018-05-31T17:47:09.745Z,26.10
2018-05-31T17:49:40.350Z,26.00
2018-05-31T17:52:13.001Z,25.90
2018-05-31T17:54:43.846Z,25.90
2018-05-31T17:57:12.983Z,25.80
2018-05-31T17:59:42.038Z,25.70
2018-05-31T18:05:05.415Z,25.40
2018-05-31T18:07:31.818Z,25.40
2018-05-31T18:09:59.353Z,25.60
2018-05-31T18:12:31.583Z,25.70
2018-05-31T18:14:59.172Z,25.70
2018-05-31T18:17:30.811Z,25.70
2018-05-31T18:19:59.611Z,25.70
2018-05-31T18:22:29.126Z,25.70
2018-05-31T18:25:01.606Z,25.60
2018-05-31T18:27:28.835Z,25.40
2018-05-31T18:29:56.756Z,25.40
2018-05-31T18:32:23.240Z,25.40
2018-05-31T18:34:58.530Z,25.40
2018-05-31T18:37:43.357Z,25.30
2018-05-31T18:40:13.201Z,25.30
2018-05-31T18:42:45.780Z,25.30
2018-05-31T18:45:13.825Z,25.20
2018-05-31T18:50:44.270Z,25.10
2018-05-31T18:53:29.732Z,25.00
2018-05-31T18:56:58.047Z,24.90
2018-05-31T18:59:28.741Z,24.70
2018-05-31T19:29:23.942Z,24.50
2018-05-31T19:34:54.470Z,24.10
2018-05-31T19:37:23.769Z,24.00
2018-05-31T19:39:50.133Z,23.90
2018-05-31T19:42:38.963Z,23.80
2018-05-31T19:45:26.998Z,23.80
2018-05-31T19:48:03.373Z,23.80
2018-05-31T19:56:17.255Z,23.60
2018-05-31T20:17:11.072Z,23.00
2018-05-31T20:19:41.309Z,22.90
2018-05-31T20:25:31.035Z,22.70
2018-05-31T20:27:59.573Z,22.60
2018-05-31T20:33:44.130Z,22.40
2018-05-31T20:36:10.891Z,22.40
2018-05-31T20:38:58.055Z,22.20
2018-05-31T20:41:29.469Z,22.20
2018-05-31T20:43:56.102Z,22.20
2018-05-31T20:46:26.401Z,22.20
2018-05-31T20:52:01.944Z,22.20
2018-05-31T20:57:40.191Z,22.20
2018-05-31T21:06:13.232Z,22.30
2018-05-31T21:08:40.573Z,22.30
2018-05-31T21:11:29.321Z,22.30
2018-05-31T21:13:59.250Z,22.20
2018-05-31T21:16:29.502Z,22.10
2018-05-31T21:18:58.920Z,22.20
2018-05-31T21:27:51.111Z,22.10
2018-05-31T21:30:18.232Z,22.10
2018-05-31T21:32:45.254Z,22.10
2018-05-31T21:38:15.926Z,22.00
2018-05-31T21:43:46.627Z,22.00
2018-05-31T21:46:17.671Z,22.00
2018-05-31T21:48:57.583Z,22.00
2018-05-31T21:51:29.394Z,21.90
2018-05-31T21:53:59.689Z,21.90
2018-05-31T21:56:29.954Z,21.90
2018-05-31T21:59:03.481Z,21.90
2018-05-31T22:01:30.898Z,21.90
2018-05-31T22:03:58.649Z,21.90
2018-05-31T22:06:28.141Z,21.90
2018-05-31T22:08:58.933Z,21.90
2018-05-31T22:11:28.814Z,21.90
2018-05-31T22:13:58.219Z,21.90
2018-05-31T22:16:30.101Z,21.90
2018-05-31T22:22:05.994Z,21.90
2018-05-31T22:24:33.743Z,21.90
2018-05-31T22:33:07.540Z,21.80
2018-05-31T22:35:34.519Z,21.80
2018-05-31T22:44:07.322Z,21.60
2018-05-31T22:46:33.698Z,21.60
2018-05-31T22:49:00.611Z,21.60
2018-05-31T22:51:32.106Z,21.60
2018-05-31T22:53:58.571Z,21.60
2018-05-31T22:58:59.067Z,21.60
2018-05-31T23:01:33.998Z,21.70
2018-05-31T23:04:02.559Z,21.60
2018-05-31T23:06:29.217Z,21.60
2018-05-31T23:08:55.478Z,21.60
2018-05-31T23:11:21.913Z,21.60
2018-05-31T23:14:03.374Z,21.70
2018-05-31T23:16:34.014Z,21.60
2018-05-31T23:19:02.622Z,21.60
2018-05-31T23:27:34.624Z,21.60
2018-05-31T23:30:04.632Z,21.50
2018-05-31T23:32:34.105Z,21.60
2018-05-31T23:35:03.361Z,21.60
2018-05-31T23:40:33.296Z,21.60
2018-05-31T23:42:59.831Z,21.70
2018-05-31T23:45:26.988Z,21.70
2018-05-31T23:48:08.567Z,21.70
2018-05-31T23:50:35.052Z,21.70
2018-05-31T23:53:03.849Z,21.70
2018-05-31T23:55:36.538Z,21.50
2018-05-31T23:58:06.838Z,21.30
